createdAt,value
2017-03-17T00:00:00.859Z,0
2017-03-17T00:00:41.402Z,0
2017-03-17T00:01:21.929Z,0
2017-03-17T00:02:02.460Z,0
2017-03-17T00:02:42.965Z,0
2017-03-17T00:03:23.511Z,0
2017-03-17T00:04:04.059Z,0
2017-03-17T00:04:44.564Z,0
2017-03-17T00:05:25.105Z,0
2017-03-17T00:06:05.594Z,0
2017-03-17T00:06:46.111Z,0
2017-03-17T00:07:26.605Z,0
2017-03-17T00:08:07.122Z,0
2017-03-17T00:08:47.599Z,0
2017-03-17T00:09:28.104Z,0
2017-03-17T00:10:08.644Z,0
2017-03-17T00:10:49.150Z,0
2017-03-17T00:11:29.649Z,0
2017-03-17T00:12:10.149Z,0
2017-03-17T00:12:50.660Z,0
2017-03-17T00:13:31.185Z,0
2017-03-17T00:14:11.664Z,0
2017-03-17T00:16:25.940Z,0
2017-03-17T00:17:06.416Z,0
2017-03-17T00:17:46.912Z,0
2017-03-17T00:18:27.427Z,0
2017-03-17T00:19:07.933Z,0
2017-03-17T00:19:48.414Z,0
2017-03-17T00:20:28.904Z,0
2017-03-17T00:21:09.354Z,0
2017-03-17T00:21:49.842Z,0
2017-03-17T00:22:30.403Z,0
2017-03-17T00:23:10.844Z,0
2017-03-17T00:23:51.336Z,0
2017-03-17T00:24:31.799Z,0
2017-03-17T00:25:12.260Z,0
2017-03-17T00:25:52.778Z,0
2017-03-17T00:26:33.241Z,0
2017-03-17T00:27:13.732Z,0
2017-03-17T00:27:54.215Z,0
2017-03-17T00:28:34.718Z,0
2017-03-17T00:29:15.202Z,0
2017-03-17T00:29:55.704Z,0
2017-03-17T00:30:36.190Z,0
2017-03-17T00:31:16.662Z,0
2017-03-17T00:31:57.187Z,0
2017-03-17T00:32:37.659Z,0
2017-03-17T00:33:18.156Z,0
2017-03-17T00:33:58.623Z,0
2017-03-17T00:34:39.126Z,0
2017-03-17T00:35:19.600Z,0
2017-03-17T00:36:00.119Z,0
2017-03-17T00:36:40.625Z,0
2017-03-17T00:37:21.137Z,0
2017-03-17T00:38:01.605Z,0
2017-03-17T00:38:42.143Z,0
2017-03-17T00:39:22.600Z,0
2017-03-17T00:40:03.073Z,0
2017-03-17T00:40:43.585Z,0
2017-03-17T00:41:24.052Z,0
2017-03-17T00:42:04.574Z,0
2017-03-17T00:42:45.081Z,0
2017-03-17T00:43:25.577Z,0
2017-03-17T00:44:06.125Z,0
2017-03-17T00:44:46.652Z,0
2017-03-17T00:45:27.147Z,0
2017-03-17T00:46:07.666Z,0
2017-03-17T00:46:48.132Z,0
2017-03-17T00:47:28.633Z,0
2017-03-17T00:48:09.132Z,0
2017-03-17T00:48:49.639Z,0
2017-03-17T00:49:30.160Z,0
2017-03-17T00:50:10.632Z,0
2017-03-17T00:50:51.343Z,0
2017-03-17T00:51:31.665Z,0
2017-03-17T00:52:12.183Z,0
2017-03-17T00:52:52.687Z,0
2017-03-17T00:53:33.169Z,0
2017-03-17T00:54:13.643Z,0
2017-03-17T00:54:54.151Z,0
2017-03-17T00:55:34.661Z,0
2017-03-17T00:56:15.136Z,0
2017-03-17T00:56:55.654Z,0
2017-03-17T00:57:36.110Z,0
2017-03-17T00:58:16.638Z,0
2017-03-17T00:58:57.092Z,0
2017-03-17T00:59:37.601Z,0
2017-03-17T01:00:18.093Z,0
2017-03-17T01:00:58.569Z,0
2017-03-17T01:01:39.098Z,0
2017-03-17T01:02:19.596Z,0
2017-03-17T01:03:00.014Z,0
2017-03-17T01:03:40.529Z,0
2017-03-17T01:04:21.011Z,0
2017-03-17T01:05:01.517Z,0
2017-03-17T01:05:41.995Z,0
2017-03-17T01:06:22.509Z,0
2017-03-17T01:07:03.018Z,0
2017-03-17T01:07:43.507Z,0
2017-03-17T01:08:23.963Z,0
2017-03-17T01:09:04.481Z,0
2017-03-17T01:09:44.977Z,0
2017-03-17T01:10:25.523Z,0
2017-03-17T01:11:05.957Z,0
2017-03-17T01:11:46.436Z,0
2017-03-17T01:12:26.960Z,0
2017-03-17T01:13:07.416Z,0
2017-03-17T01:13:47.909Z,0
2017-03-17T01:14:28.423Z,0
2017-03-17T01:15:08.910Z,0
2017-03-17T01:15:49.427Z,0
2017-03-17T01:16:29.925Z,0
2017-03-17T01:17:10.425Z,0
2017-03-17T01:17:50.916Z,0
2017-03-17T01:18:31.374Z,0
2017-03-17T01:19:11.901Z,0
2017-03-17T01:19:52.373Z,0
2017-03-17T01:20:32.894Z,0
2017-03-17T01:21:13.408Z,0
2017-03-17T01:21:53.889Z,0
2017-03-17T01:22:34.405Z,0
2017-03-17T01:23:14.897Z,0
2017-03-17T01:23:55.395Z,0
2017-03-17T01:24:35.891Z,0
2017-03-17T01:25:16.402Z,0
2017-03-17T01:25:56.896Z,0
2017-03-17T01:26:37.376Z,0
2017-03-17T01:27:17.859Z,0
2017-03-17T01:27:58.368Z,0
2017-03-17T01:28:38.817Z,0
2017-03-17T01:29:19.317Z,0
2017-03-17T01:29:59.814Z,0
2017-03-17T01:30:40.371Z,0
2017-03-17T01:31:20.822Z,0
2017-03-17T01:32:01.310Z,0
2017-03-17T01:32:41.780Z,0
2017-03-17T01:33:22.306Z,0
2017-03-17T01:34:02.804Z,0
2017-03-17T01:34:43.284Z,0
2017-03-17T01:35:23.786Z,0
2017-03-17T01:36:04.259Z,0
2017-03-17T01:36:44.744Z,0
2017-03-17T01:37:25.227Z,0
2017-03-17T01:38:05.739Z,0
2017-03-17T01:38:46.240Z,0
2017-03-17T01:39:26.753Z,0
2017-03-17T01:40:07.286Z,0
2017-03-17T01:40:47.770Z,0
2017-03-17T01:41:28.238Z,0
2017-03-17T01:42:08.721Z,0
2017-03-17T01:42:49.240Z,0
2017-03-17T01:43:29.698Z,0
2017-03-17T01:44:10.206Z,0
2017-03-17T01:44:50.664Z,0
2017-03-17T01:45:31.174Z,0
2017-03-17T01:46:11.667Z,0
2017-03-17T01:46:52.160Z,0
2017-03-17T01:47:32.662Z,0
2017-03-17T01:48:13.188Z,0
2017-03-17T01:48:53.673Z,0
2017-03-17T01:49:34.163Z,0
2017-03-17T01:50:14.662Z,0
2017-03-17T01:50:55.151Z,0
2017-03-17T01:51:35.634Z,0
2017-03-17T01:52:16.126Z,0
2017-03-17T01:52:56.658Z,0
2017-03-17T01:53:37.141Z,0
2017-03-17T01:54:17.682Z,0
2017-03-17T01:54:58.146Z,0
2017-03-17T01:55:38.650Z,0
2017-03-17T01:56:19.131Z,0
2017-03-17T01:56:59.584Z,0
2017-03-17T01:57:40.064Z,0
2017-03-17T01:58:20.584Z,0
2017-03-17T01:59:01.031Z,0
2017-03-17T01:59:41.515Z,0
2017-03-17T02:00:22.023Z,0
2017-03-17T02:01:02.501Z,0
2017-03-17T02:01:42.997Z,0
2017-03-17T02:02:23.499Z,0
2017-03-17T02:03:04.008Z,0
2017-03-17T02:03:44.530Z,0
2017-03-17T02:04:25.011Z,0
2017-03-17T02:05:05.493Z,0
2017-03-17T02:05:46.010Z,0
2017-03-17T02:06:26.495Z,0
2017-03-17T02:07:06.991Z,0
2017-03-17T02:07:47.469Z,0
2017-03-17T02:08:27.956Z,0
2017-03-17T02:09:08.456Z,0
2017-03-17T02:09:48.923Z,0
2017-03-17T02:10:29.450Z,0
2017-03-17T02:11:09.900Z,0
2017-03-17T02:11:50.386Z,0
2017-03-17T02:12:30.869Z,0
2017-03-17T02:13:11.324Z,0
2017-03-17T02:13:51.821Z,0
2017-03-17T02:14:32.293Z,0
2017-03-17T02:15:12.778Z,0
2017-03-17T02:15:53.245Z,0
2017-03-17T02:16:33.736Z,0
2017-03-17T02:17:14.256Z,0
2017-03-17T02:17:54.729Z,0
2017-03-17T02:18:35.191Z,0
2017-03-17T02:19:15.667Z,0
2017-03-17T02:19:56.170Z,0
2017-03-17T02:20:36.664Z,0
2017-03-17T02:21:17.180Z,0
2017-03-17T02:21:57.693Z,0
2017-03-17T02:22:38.205Z,0
2017-03-17T02:23:18.680Z,0
2017-03-17T02:23:59.160Z,0
2017-03-17T02:24:39.671Z,0
2017-03-17T02:25:20.189Z,0
2017-03-17T02:26:00.710Z,0
2017-03-17T02:26:41.215Z,0
2017-03-17T02:27:21.717Z,0
2017-03-17T02:28:02.201Z,0
2017-03-17T02:28:42.750Z,0
2017-03-17T02:29:23.220Z,0
2017-03-17T02:30:03.716Z,0
2017-03-17T02:30:44.180Z,0
2017-03-17T02:31:24.692Z,0
2017-03-17T02:32:05.207Z,0
2017-03-17T02:32:45.670Z,0
2017-03-17T02:33:26.168Z,0
2017-03-17T02:34:06.661Z,0
2017-03-17T02:34:47.153Z,0
2017-03-17T02:35:27.655Z,0
2017-03-17T02:36:08.148Z,0
2017-03-17T02:36:48.623Z,0
2017-03-17T02:37:29.122Z,0
2017-03-17T02:38:09.603Z,0
2017-03-17T02:38:50.140Z,0
2017-03-17T02:39:30.596Z,0
2017-03-17T02:40:11.108Z,0
2017-03-17T02:40:51.605Z,0
2017-03-17T02:41:32.093Z,0
2017-03-17T02:42:12.633Z,0
2017-03-17T02:42:53.084Z,0
2017-03-17T02:43:33.584Z,0
2017-03-17T02:44:14.043Z,0
2017-03-17T02:44:54.557Z,0
2017-03-17T02:45:35.049Z,0
2017-03-17T02:46:15.554Z,0
2017-03-17T02:46:56.053Z,0
2017-03-17T02:47:36.528Z,0
2017-03-17T02:48:17.025Z,0
2017-03-17T02:48:57.517Z,0
2017-03-17T02:49:38.027Z,0
2017-03-17T02:50:18.511Z,0
2017-03-17T02:50:59.017Z,0
2017-03-17T02:51:39.518Z,0
2017-03-17T02:52:20.039Z,0
2017-03-17T02:53:00.499Z,0
2017-03-17T02:53:41.025Z,0
2017-03-17T02:54:21.500Z,0
2017-03-17T02:55:02.017Z,0
2017-03-17T02:55:42.488Z,0
2017-03-17T02:56:22.990Z,0
2017-03-17T02:57:03.477Z,0
2017-03-17T02:57:43.964Z,0
2017-03-17T02:58:24.442Z,0
2017-03-17T02:59:04.923Z,0
2017-03-17T02:59:45.412Z,0
2017-03-17T03:00:25.938Z,0
2017-03-17T03:01:06.420Z,0
2017-03-17T03:01:46.927Z,0
2017-03-17T03:02:27.443Z,0
2017-03-17T03:03:07.893Z,0
2017-03-17T03:03:48.412Z,0
2017-03-17T03:04:28.893Z,0
2017-03-17T03:05:09.340Z,0
2017-03-17T03:05:49.890Z,0
2017-03-17T03:06:30.365Z,0
2017-03-17T03:07:10.885Z,0
2017-03-17T03:07:51.395Z,0
2017-03-17T03:08:31.897Z,0
2017-03-17T03:09:12.285Z,0
2017-03-17T03:09:52.926Z,0
2017-03-17T03:10:33.278Z,0
2017-03-17T03:11:13.751Z,0
2017-03-17T03:11:54.273Z,0
2017-03-17T03:12:34.759Z,0
2017-03-17T03:13:15.301Z,0
2017-03-17T03:13:55.744Z,0
2017-03-17T03:14:36.195Z,0
2017-03-17T03:15:16.724Z,0
2017-03-17T03:15:57.178Z,0
2017-03-17T03:16:37.666Z,0
2017-03-17T03:17:18.154Z,0
2017-03-17T03:17:58.686Z,0
2017-03-17T03:18:39.146Z,0
2017-03-17T03:19:19.646Z,0
2017-03-17T03:20:00.148Z,0
2017-03-17T03:20:40.644Z,0
2017-03-17T03:21:21.103Z,0
2017-03-17T03:22:01.591Z,0
2017-03-17T03:22:42.097Z,0
2017-03-17T03:23:22.581Z,0
2017-03-17T03:24:03.103Z,0
2017-03-17T03:24:43.595Z,0
2017-03-17T03:25:24.062Z,0
2017-03-17T03:26:04.676Z,0
2017-03-17T03:26:45.138Z,0
2017-03-17T03:27:25.596Z,0
2017-03-17T03:28:06.076Z,0
2017-03-17T03:28:46.551Z,0
2017-03-17T03:29:27.058Z,0
2017-03-17T03:30:07.532Z,0
2017-03-17T03:30:48.036Z,0
2017-03-17T03:31:28.495Z,0
2017-03-17T03:32:08.994Z,0
2017-03-17T03:32:49.449Z,0
2017-03-17T03:33:30.000Z,0
2017-03-17T03:34:10.449Z,0
2017-03-17T03:34:50.935Z,0
2017-03-17T03:35:31.419Z,0
2017-03-17T03:36:11.902Z,0
2017-03-17T03:36:52.374Z,0
2017-03-17T03:37:32.845Z,0
2017-03-17T03:38:13.350Z,0
2017-03-17T03:38:53.837Z,0
2017-03-17T03:39:34.366Z,0
2017-03-17T03:40:14.902Z,0
2017-03-17T03:40:55.295Z,0
2017-03-17T03:41:35.847Z,0
2017-03-17T03:42:16.318Z,0
2017-03-17T03:42:56.889Z,0
2017-03-17T03:43:37.309Z,0
2017-03-17T03:44:17.843Z,0
2017-03-17T03:44:58.321Z,0
2017-03-17T03:45:38.879Z,0
2017-03-17T03:46:19.284Z,0
2017-03-17T03:46:59.771Z,0
2017-03-17T03:47:40.281Z,0
2017-03-17T03:48:20.787Z,0
2017-03-17T03:49:01.266Z,0
2017-03-17T03:49:41.830Z,0
2017-03-17T03:50:22.292Z,0
2017-03-17T03:51:02.802Z,0
2017-03-17T03:51:43.324Z,0
2017-03-17T03:52:23.766Z,0
2017-03-17T03:53:04.327Z,0
2017-03-17T03:53:44.756Z,0
2017-03-17T03:54:25.270Z,0
2017-03-17T03:55:05.775Z,0
2017-03-17T03:55:46.291Z,0
2017-03-17T03:56:26.757Z,0
2017-03-17T03:57:07.199Z,0
2017-03-17T03:57:47.668Z,0
2017-03-17T03:58:28.187Z,0
2017-03-17T03:59:08.652Z,0
2017-03-17T03:59:49.177Z,0
2017-03-17T04:00:29.643Z,0
2017-03-17T04:01:10.111Z,0
2017-03-17T04:01:50.662Z,0
2017-03-17T04:02:31.073Z,0
2017-03-17T04:03:11.593Z,0
2017-03-17T04:03:52.091Z,0
2017-03-17T04:04:32.545Z,0
2017-03-17T04:05:13.055Z,0
2017-03-17T04:05:53.567Z,0
2017-03-17T04:06:34.025Z,0
2017-03-17T04:07:14.546Z,0
2017-03-17T04:07:55.020Z,0
2017-03-17T04:08:35.566Z,0
2017-03-17T04:09:16.062Z,0
2017-03-17T04:09:56.560Z,0
2017-03-17T04:10:37.065Z,0
2017-03-17T04:11:17.521Z,0
2017-03-17T04:11:58.023Z,0
2017-03-17T04:12:38.525Z,0
2017-03-17T04:13:19.014Z,0
2017-03-17T04:13:59.540Z,0
2017-03-17T04:14:40.011Z,0
2017-03-17T04:15:20.482Z,0
2017-03-17T04:16:00.993Z,0
2017-03-17T04:16:41.497Z,0
2017-03-17T04:17:21.999Z,0
2017-03-17T04:18:02.473Z,0
2017-03-17T04:18:42.952Z,0
2017-03-17T04:19:23.446Z,0
2017-03-17T04:20:04.004Z,0
2017-03-17T04:20:44.467Z,0
2017-03-17T04:21:24.922Z,0
2017-03-17T04:22:05.431Z,0
2017-03-17T04:22:45.910Z,0
2017-03-17T04:23:26.413Z,0
2017-03-17T04:24:06.923Z,0
2017-03-17T04:24:47.378Z,0
2017-03-17T04:25:27.889Z,0
2017-03-17T04:26:08.371Z,0
2017-03-17T04:26:48.874Z,0
2017-03-17T04:27:29.360Z,0
2017-03-17T04:28:09.879Z,0
2017-03-17T04:28:50.404Z,0
2017-03-17T04:29:30.875Z,0
2017-03-17T04:30:11.390Z,0
2017-03-17T04:30:51.852Z,0
2017-03-17T04:31:32.360Z,0
2017-03-17T04:32:12.849Z,0
2017-03-17T04:32:53.287Z,0
2017-03-17T04:33:33.811Z,0
2017-03-17T04:34:14.275Z,0
2017-03-17T04:34:54.783Z,0
2017-03-17T04:35:35.307Z,0
2017-03-17T04:36:15.799Z,0
2017-03-17T04:36:56.279Z,0
2017-03-17T04:37:36.843Z,0
2017-03-17T04:38:17.303Z,0
2017-03-17T04:38:57.864Z,0
2017-03-17T04:39:38.349Z,0
2017-03-17T04:40:18.827Z,0
2017-03-17T04:40:59.326Z,0
2017-03-17T04:41:39.771Z,0
2017-03-17T04:42:20.279Z,0
2017-03-17T04:43:00.777Z,0
2017-03-17T04:43:41.284Z,0
2017-03-17T04:44:21.779Z,0
2017-03-17T04:45:02.286Z,0
2017-03-17T04:45:42.814Z,0
2017-03-17T04:46:23.306Z,0
2017-03-17T04:47:03.915Z,0
2017-03-17T04:47:44.458Z,0
2017-03-17T04:48:24.955Z,0
2017-03-17T04:49:05.493Z,0
2017-03-17T04:49:45.926Z,0
2017-03-17T04:50:26.416Z,0
2017-03-17T04:51:06.940Z,0
2017-03-17T04:51:47.433Z,0
2017-03-17T04:52:27.985Z,0
2017-03-17T04:53:08.461Z,0
2017-03-17T04:53:48.938Z,0
2017-03-17T04:54:29.430Z,0
2017-03-17T04:55:09.902Z,0
2017-03-17T04:55:50.428Z,0
2017-03-17T04:56:30.947Z,0
2017-03-17T04:57:11.414Z,0
2017-03-17T04:57:51.952Z,0
2017-03-17T04:58:32.433Z,0
2017-03-17T04:59:12.935Z,0
2017-03-17T04:59:53.421Z,0
2017-03-17T05:00:33.901Z,0
2017-03-17T05:01:14.393Z,0
2017-03-17T05:01:54.929Z,0
2017-03-17T05:02:35.406Z,0
2017-03-17T05:03:15.876Z,0
2017-03-17T05:03:56.375Z,0
2017-03-17T05:04:36.889Z,0
2017-03-17T05:05:17.403Z,4
2017-03-17T05:05:57.891Z,4
2017-03-17T05:06:38.382Z,0
2017-03-17T05:07:18.915Z,0
2017-03-17T05:07:59.395Z,4
2017-03-17T05:08:39.865Z,4
2017-03-17T05:09:20.420Z,0
2017-03-17T05:10:00.864Z,4
2017-03-17T05:10:41.408Z,4
2017-03-17T05:11:21.835Z,4
2017-03-17T05:12:02.378Z,4
2017-03-17T05:12:42.842Z,8
2017-03-17T05:13:23.359Z,4
2017-03-17T05:14:03.836Z,8
2017-03-17T05:14:44.368Z,8
2017-03-17T05:15:24.864Z,8
2017-03-17T05:16:05.341Z,8
2017-03-17T05:16:45.856Z,12
2017-03-17T05:17:26.374Z,12
2017-03-17T05:18:06.886Z,16
2017-03-17T05:18:47.391Z,16
2017-03-17T05:19:27.917Z,20
2017-03-17T05:20:08.385Z,20
2017-03-17T05:20:48.881Z,24
2017-03-17T05:21:29.368Z,24
2017-03-17T05:22:09.885Z,28
2017-03-17T05:22:50.365Z,32
2017-03-17T05:23:30.836Z,32
2017-03-17T05:24:11.372Z,36
2017-03-17T05:24:51.824Z,40
2017-03-17T05:25:32.287Z,44
2017-03-17T05:26:12.774Z,48
2017-03-17T05:26:53.293Z,52
2017-03-17T05:27:33.776Z,60
2017-03-17T05:28:14.283Z,68
2017-03-17T05:28:54.775Z,72
2017-03-17T05:29:35.302Z,76
2017-03-17T05:30:15.824Z,84
2017-03-17T05:30:56.309Z,88
2017-03-17T05:31:36.771Z,96
2017-03-17T05:32:17.295Z,104
2017-03-17T05:32:57.752Z,112
2017-03-17T05:33:38.263Z,116
2017-03-17T05:34:18.731Z,128
2017-03-17T05:34:59.231Z,136
2017-03-17T05:35:39.726Z,148
2017-03-17T05:36:20.232Z,160
2017-03-17T05:37:00.669Z,168
2017-03-17T05:37:41.210Z,180
2017-03-17T05:38:21.705Z,196
2017-03-17T05:39:02.207Z,208
2017-03-17T05:39:42.726Z,224
2017-03-17T05:40:23.186Z,240
2017-03-17T05:41:03.683Z,252
2017-03-17T05:41:44.226Z,268
2017-03-17T05:42:24.758Z,288
2017-03-17T05:43:05.260Z,308
2017-03-17T05:43:45.773Z,328
2017-03-17T05:44:26.313Z,348
2017-03-17T05:45:06.805Z,368
2017-03-17T05:45:47.330Z,388
2017-03-17T05:46:27.818Z,408
2017-03-17T05:47:08.293Z,428
2017-03-17T05:47:48.804Z,448
2017-03-17T05:48:29.285Z,468
2017-03-17T05:49:09.822Z,488
2017-03-17T05:49:50.325Z,508
2017-03-17T05:50:30.811Z,524
2017-03-17T05:51:11.322Z,544
2017-03-17T05:51:51.789Z,572
2017-03-17T05:52:32.269Z,600
2017-03-17T05:53:12.821Z,628
2017-03-17T05:53:53.260Z,648
2017-03-17T05:54:33.744Z,672
2017-03-17T05:55:14.226Z,700
2017-03-17T05:55:54.746Z,728
2017-03-17T05:56:35.268Z,752
2017-03-17T05:57:15.781Z,772
2017-03-17T05:57:56.285Z,796
2017-03-17T05:58:36.797Z,824
2017-03-17T05:59:17.277Z,848
2017-03-17T05:59:57.774Z,876
2017-03-17T06:00:38.251Z,900
2017-03-17T06:01:18.748Z,924
2017-03-17T06:01:59.208Z,948
2017-03-17T06:02:39.706Z,964
2017-03-17T06:03:20.170Z,984
2017-03-17T06:04:00.693Z,1004
2017-03-17T06:04:41.202Z,1028
2017-03-17T06:05:21.686Z,1056
2017-03-17T06:06:02.194Z,1084
2017-03-17T06:06:42.701Z,1108
2017-03-17T06:07:23.221Z,1136
2017-03-17T06:08:03.726Z,1148
2017-03-17T06:08:44.221Z,1136
2017-03-17T06:09:24.712Z,1116
2017-03-17T06:10:05.195Z,1140
2017-03-17T06:10:45.716Z,1200
2017-03-17T06:11:26.198Z,1252
2017-03-17T06:12:06.678Z,1284
2017-03-17T06:12:47.241Z,1312
2017-03-17T06:13:27.729Z,1332
2017-03-17T06:14:08.207Z,1356
2017-03-17T06:14:48.691Z,1380
2017-03-17T06:15:29.185Z,1412
2017-03-17T06:16:09.678Z,1440
2017-03-17T06:16:50.306Z,1444
2017-03-17T06:17:30.796Z,1428
2017-03-17T06:18:11.772Z,1428
2017-03-17T06:18:52.138Z,1448
2017-03-17T06:19:32.656Z,1492
2017-03-17T06:20:13.183Z,1536
2017-03-17T06:20:53.645Z,1592
2017-03-17T06:21:34.146Z,1640
2017-03-17T06:22:14.618Z,1684
2017-03-17T06:22:55.133Z,1712
2017-03-17T06:23:35.647Z,1732
2017-03-17T06:24:16.091Z,1752
2017-03-17T06:24:56.591Z,1764
2017-03-17T06:25:37.108Z,1780
2017-03-17T06:26:17.621Z,1792
2017-03-17T06:26:58.119Z,1800
2017-03-17T06:27:38.637Z,1816
2017-03-17T06:28:19.149Z,1836
2017-03-17T06:28:59.610Z,1856
2017-03-17T06:29:40.110Z,1868
2017-03-17T06:30:20.604Z,1864
2017-03-17T06:31:01.130Z,1908
2017-03-17T06:31:41.605Z,1924
2017-03-17T06:32:22.201Z,1944
2017-03-17T06:33:02.597Z,1956
2017-03-17T06:33:43.257Z,1968
2017-03-17T06:34:23.722Z,1992
2017-03-17T06:35:04.205Z,2012
2017-03-17T06:35:44.772Z,2020
2017-03-17T06:36:25.268Z,2052
2017-03-17T06:37:05.730Z,2076
2017-03-17T06:37:46.244Z,2100
2017-03-17T06:38:26.727Z,2116
2017-03-17T06:39:07.244Z,2124
2017-03-17T06:39:47.745Z,2124
2017-03-17T06:40:28.333Z,2132
2017-03-17T06:41:08.789Z,2156
2017-03-17T06:41:49.285Z,2172
2017-03-17T06:42:29.869Z,2184
2017-03-17T06:43:10.406Z,2196
2017-03-17T06:43:51.646Z,2204
2017-03-17T06:44:32.144Z,2216
2017-03-17T06:45:12.557Z,2232
2017-03-17T06:45:53.133Z,2244
2017-03-17T06:46:33.637Z,2248
2017-03-17T06:47:14.146Z,2256
2017-03-17T06:47:54.930Z,2260
2017-03-17T06:48:35.586Z,2268
2017-03-17T06:49:16.042Z,2276
2017-03-17T06:49:56.538Z,2276
2017-03-17T06:50:37.073Z,2252
2017-03-17T06:51:17.509Z,2196
2017-03-17T06:51:58.026Z,2136
2017-03-17T06:52:38.481Z,2172
2017-03-17T06:53:18.961Z,2276
2017-03-17T06:53:59.522Z,2248
2017-03-17T06:54:40.026Z,2260
2017-03-17T06:55:20.474Z,2332
2017-03-17T06:56:00.957Z,2348
2017-03-17T06:56:41.473Z,2348
2017-03-17T06:57:21.988Z,2360
2017-03-17T06:58:02.448Z,2396
2017-03-17T06:58:43.066Z,2468
2017-03-17T06:59:23.555Z,2612
2017-03-17T07:00:04.074Z,2820
2017-03-17T07:00:44.589Z,3052
2017-03-17T07:01:25.084Z,3256
2017-03-17T07:02:05.604Z,3200
2017-03-17T07:02:46.106Z,3212
2017-03-17T07:03:26.566Z,3392
2017-03-17T07:04:07.056Z,3432
2017-03-17T07:04:47.567Z,3600
2017-03-17T07:05:28.058Z,3600
2017-03-17T07:06:08.564Z,3600
2017-03-17T07:06:49.090Z,3616
2017-03-17T07:07:29.576Z,3644
2017-03-17T07:08:10.079Z,3640
2017-03-17T07:08:50.579Z,3648
2017-03-17T07:09:31.108Z,3652
2017-03-17T07:10:11.536Z,3684
2017-03-17T07:10:52.042Z,3664
2017-03-17T07:11:32.541Z,3636
2017-03-17T07:12:13.063Z,3684
2017-03-17T07:12:53.523Z,3704
2017-03-17T07:13:34.048Z,3692
2017-03-17T07:14:14.545Z,3704
2017-03-17T07:14:55.091Z,3688
2017-03-17T07:15:35.530Z,3652
2017-03-17T07:16:16.015Z,3672
2017-03-17T07:16:56.858Z,3672
2017-03-17T07:17:37.217Z,3664
2017-03-17T07:18:17.764Z,3668
2017-03-17T07:18:58.281Z,3676
2017-03-17T07:19:40.576Z,3664
2017-03-17T07:20:22.010Z,3668
2017-03-17T07:21:03.272Z,3648
2017-03-17T07:21:43.771Z,3616
2017-03-17T07:22:24.270Z,3644
2017-03-17T07:23:07.635Z,3628
2017-03-17T07:23:45.514Z,3632
2017-03-17T07:24:26.003Z,3580
2017-03-17T07:25:09.287Z,3624
2017-03-17T07:25:48.319Z,3624
2017-03-17T07:26:28.888Z,3460
2017-03-17T07:27:09.345Z,3596
2017-03-17T07:27:49.806Z,3608
2017-03-17T07:28:30.318Z,3612
2017-03-17T07:29:10.772Z,3624
2017-03-17T07:31:41.369Z,3664
2017-03-17T07:32:21.713Z,3660
2017-03-17T07:33:02.267Z,3648
2017-03-17T07:33:44.509Z,3640
2017-03-17T07:34:24.968Z,3604
2017-03-17T07:35:05.452Z,3608
2017-03-17T07:35:45.970Z,3560
2017-03-17T07:36:26.533Z,3512
2017-03-17T07:37:06.971Z,3432
2017-03-17T07:37:47.515Z,3356
2017-03-17T07:38:28.005Z,3256
2017-03-17T07:39:08.480Z,3124
2017-03-17T07:39:48.950Z,3068
2017-03-17T07:40:29.428Z,3180
2017-03-17T07:41:09.969Z,3288
2017-03-17T07:41:50.503Z,3280
2017-03-17T07:42:30.938Z,3276
2017-03-17T07:43:13.383Z,3300
2017-03-17T07:43:53.826Z,3308
2017-03-17T07:44:34.395Z,3320
2017-03-17T07:45:14.854Z,3320
2017-03-17T07:45:55.330Z,3320
2017-03-17T07:46:35.829Z,3324
2017-03-17T07:47:16.325Z,3312
2017-03-17T07:47:56.836Z,3304
2017-03-17T07:48:37.298Z,3308
2017-03-17T07:49:17.836Z,3304
2017-03-17T07:49:58.347Z,3300
2017-03-17T07:50:38.876Z,3300
2017-03-17T07:51:19.471Z,3288
2017-03-17T07:51:59.952Z,3280
2017-03-17T07:52:40.467Z,3272
2017-03-17T07:53:20.977Z,3272
2017-03-17T07:54:01.567Z,3252
2017-03-17T07:54:42.044Z,3248
2017-03-17T07:55:22.606Z,3244
2017-03-17T07:56:03.144Z,3232
2017-03-17T07:56:43.707Z,3236
2017-03-17T07:57:24.192Z,3248
2017-03-17T07:58:04.700Z,3256
2017-03-17T07:58:45.209Z,3264
2017-03-17T07:59:25.699Z,3272
2017-03-17T08:00:06.168Z,3260
2017-03-17T08:00:46.706Z,3240
2017-03-17T08:01:27.213Z,3224
2017-03-17T08:02:07.711Z,3208
2017-03-17T08:02:48.227Z,3204
2017-03-17T08:03:28.768Z,3200
2017-03-17T08:04:09.255Z,3192
2017-03-17T08:04:49.781Z,3204
2017-03-17T08:05:30.287Z,3192
2017-03-17T08:06:10.812Z,3164
2017-03-17T08:06:51.337Z,3148
2017-03-17T08:07:31.857Z,3200
2017-03-17T08:08:13.411Z,3212
2017-03-17T08:08:53.897Z,3212
2017-03-17T08:09:34.373Z,3212
2017-03-17T08:10:14.899Z,3220
2017-03-17T08:10:55.460Z,3232
2017-03-17T08:11:35.954Z,3248
2017-03-17T08:12:16.460Z,3256
2017-03-17T08:12:56.956Z,3256
2017-03-17T08:13:37.462Z,3268
2017-03-17T08:14:18.012Z,3284
2017-03-17T08:14:58.624Z,3296
2017-03-17T08:15:39.169Z,3312
2017-03-17T08:16:19.708Z,3320
2017-03-17T08:17:00.224Z,3328
2017-03-17T08:17:40.717Z,3320
2017-03-17T08:18:21.195Z,3296
2017-03-17T08:19:01.700Z,3292
2017-03-17T08:19:42.266Z,3308
2017-03-17T08:20:22.754Z,3316
2017-03-17T08:21:03.287Z,3304
2017-03-17T08:21:43.763Z,3288
2017-03-17T08:22:24.236Z,3288
2017-03-17T08:23:04.740Z,3284
2017-03-17T08:23:45.324Z,3280
2017-03-17T08:24:25.819Z,3268
2017-03-17T08:25:06.343Z,3240
2017-03-17T08:25:46.793Z,3204
2017-03-17T08:26:27.270Z,3244
2017-03-17T08:27:07.775Z,3240
2017-03-17T08:27:48.275Z,3248
2017-03-17T08:28:28.766Z,3240
2017-03-17T08:29:09.235Z,3236
2017-03-17T08:29:49.746Z,3228
2017-03-17T08:30:30.207Z,3220
2017-03-17T08:31:10.743Z,3208
2017-03-17T08:31:51.274Z,3204
2017-03-17T08:32:31.775Z,3188
2017-03-17T08:33:12.292Z,3184
2017-03-17T08:33:52.790Z,3176
2017-03-17T08:34:33.282Z,3160
2017-03-17T08:35:13.853Z,3160
2017-03-17T08:35:54.335Z,3160
2017-03-17T08:36:34.833Z,3156
2017-03-17T08:37:15.287Z,3132
2017-03-17T08:37:55.826Z,3056
2017-03-17T08:38:36.313Z,3120
2017-03-17T08:39:16.827Z,3128
2017-03-17T08:39:57.328Z,3128
2017-03-17T08:40:37.786Z,3132
2017-03-17T08:41:18.304Z,3136
2017-03-17T08:41:58.855Z,3148
2017-03-17T08:42:39.406Z,3172
2017-03-17T08:43:19.945Z,3204
2017-03-17T08:44:00.418Z,3224
2017-03-17T08:44:40.943Z,3236
2017-03-17T08:45:21.426Z,3284
2017-03-17T08:46:01.879Z,3328
2017-03-17T08:46:42.362Z,3340
2017-03-17T08:47:22.917Z,3388
2017-03-17T08:48:03.397Z,3440
2017-03-17T08:48:43.892Z,3480
2017-03-17T08:49:24.384Z,3512
2017-03-17T08:50:04.921Z,3496
2017-03-17T08:50:45.394Z,3504
2017-03-17T08:51:26.004Z,3548
2017-03-17T08:52:06.414Z,3580
2017-03-17T08:52:47.022Z,3596
2017-03-17T08:53:27.485Z,3596
2017-03-17T08:54:08.011Z,3588
2017-03-17T08:54:48.519Z,3592
2017-03-17T08:55:29.031Z,3608
2017-03-17T08:56:09.508Z,3600
2017-03-17T08:56:50.007Z,3600
2017-03-17T08:57:30.554Z,3592
2017-03-17T08:58:11.022Z,3572
2017-03-17T08:58:51.563Z,3548
2017-03-17T08:59:32.237Z,3512
2017-03-17T09:00:13.068Z,3480
2017-03-17T09:00:53.607Z,3432
2017-03-17T09:01:34.758Z,3364
2017-03-17T09:02:15.235Z,3348
2017-03-17T09:02:55.927Z,3352
2017-03-17T09:03:36.730Z,3316
2017-03-17T09:04:17.204Z,3260
2017-03-17T09:04:57.648Z,3164
2017-03-17T09:05:38.172Z,3100
2017-03-17T09:06:18.658Z,3012
2017-03-17T09:06:59.160Z,2964
2017-03-17T09:07:39.704Z,3020
2017-03-17T09:08:20.252Z,3148
2017-03-17T09:09:00.700Z,3228
2017-03-17T09:09:41.199Z,3264
2017-03-17T09:10:21.934Z,3280
2017-03-17T09:11:02.426Z,3280
2017-03-17T09:11:42.956Z,3308
2017-03-17T09:12:23.462Z,3344
2017-03-17T09:13:03.939Z,3404
2017-03-17T09:13:44.475Z,3436
2017-03-17T09:14:25.229Z,3448
2017-03-17T09:15:05.727Z,3436
2017-03-17T09:15:46.233Z,3556
2017-03-17T09:16:26.736Z,3652
2017-03-17T09:17:07.264Z,3768
2017-03-17T09:17:47.770Z,3884
2017-03-17T09:18:28.260Z,3960
2017-03-17T09:19:08.856Z,4040
2017-03-17T09:19:49.332Z,4112
2017-03-17T09:20:29.849Z,4172
2017-03-17T09:21:10.351Z,4196
2017-03-17T09:21:50.851Z,4216
2017-03-17T09:22:31.351Z,4224
2017-03-17T09:23:11.880Z,4336
2017-03-17T09:23:52.443Z,4460
2017-03-17T09:24:32.902Z,4584
2017-03-17T09:25:13.441Z,4828
2017-03-17T09:25:53.958Z,4988
2017-03-17T09:26:34.502Z,5144
2017-03-17T09:27:14.967Z,5272
2017-03-17T09:27:55.461Z,5388
2017-03-17T09:28:35.945Z,5416
2017-03-17T09:29:16.467Z,5532
2017-03-17T09:29:57.012Z,5624
2017-03-17T09:30:37.478Z,5908
2017-03-17T09:31:18.080Z,6000
2017-03-17T09:31:58.515Z,6040
2017-03-17T09:32:38.992Z,6060
2017-03-17T09:33:19.482Z,6064
2017-03-17T09:33:59.955Z,5976
2017-03-17T09:34:40.433Z,5996
2017-03-17T09:35:20.990Z,5864
2017-03-17T09:36:01.543Z,5936